KCLL - College Station/East, TX, US

Issued at 1120 UTC 16 Jul 2019
Updated at 1202 UTC 16 Jul 2019
Potential Impact None Slight Moderate High
Time1153Z 16/13Z 16/14Z 16/15Z 16/16Z 16/17Z 16/18Z 16/19Z 16/20Z 16/21Z 16/22Z 16/23Z 17/00Z 17/01Z>>
Type OBS PRVL
  [TEMP]  
PRVL PRVL PRVL PRVL PRVL PRVL PRVL PRVL PRVL PRVL PRVL PRVL
VIS 8 6 >6 >6 >6 >6 >6 >6 >6 >6 >6 >6 >6 >6
CIG 4 18
  [9]  
35 35 35 35 -- -- -- -- -- -- -- --
Cover OVC BKN
  [BKN]  
BKN BKN BKN BKN SCT SCT SCT SCT SCT SCT SCT SCT
FltCat LIFR MVFR
  [IFR]  
VFR VFR VFR VFR VFR VFR VFR VFR VFR VFR VFR VFR
WX -- BR
  [--]  
-- -- -- -- -- -- -- -- -- -- -- --
WDir 180 180
[180]
180 180 180 180 190 190 190 190 190 190 190 190
WSpd 4 8
  [8]  
10 10 10 10 12 12 12 12 12 12 12 12
WGst -- --
  [--]  
-- -- -- -- -- -- -- -- -- -- -- --
Raw TAF
KCLL 161120Z 1612/1712 18008KT 6SM BR SCT010 BKN018
  TEMPO 1612/1614 BKN009
  FM161400 18010KT P6SM SCT025 BKN035
  FM161800 19012KT P6SM SCT050
  FM170300 18006KT P6SM FEW030
  FM170900 17005KT P6SM BKN012


Raw METAR
KCLL 161153Z AUTO 18004KT 8SM OVC004 26/26 A2999 RMK AO2 SLP150 T02610256 10278 20261 51010
KCLL 161116Z AUTO 19004KT 9SM BKN008 OVC016 26/25 A2999 RMK AO2 T02610250
KCLL 161100Z AUTO 18005KT 10SM SCT009 OVC017 26/25 A2998 RMK AO2 T02610250
KCLL 161053Z AUTO 18005KT 10SM BKN009 OVC017 26/25 A2998 RMK AO2 SLP147 T02610250
KCLL 161004Z AUTO 18005KT 10SM BKN009 BKN018 26/25 A2997 RMK AO2 T02610250
KCLL 160953Z AUTO 17007KT 10SM BKN011 26/25 A2996 RMK AO2 SLP141 T02610250

METAR Board
Radar Display
Forecast Discussion
For situational awareness. Not to be used for flight planning purposes.